Time;durP1;ratioP1;P1;durP2;ratioP2;P2;SDS_P1;SDS_P2;PMS_P1;PMS_P2;Temp;Humidity;BMP_temperature;BMP_pressure;BME280_temperature;BME280_humidity;BME280_pressure;Samples;Min_cycle;Max_cycle;Signal;HPM_P1;HPM_P2
2023/05/01 00:01:05;;;;;;;17.75;8.20;;;;;;;;;;2563786;23;20008;-95
2023/05/01 00:02:26;;;;;;;12.70;8.00;;;;;;;;;;2566929;23;20005;-96
2023/05/01 00:03:46;;;;;;;16.08;7.93;;;;;;;;;;2563604;23;20004;-96
2023/05/01 00:05:08;;;;;;;15.05;9.07;;;;;;;;;;2567436;23;20012;-96
2023/05/01 00:06:30;;;;;;;15.77;8.07;;;;;;;;;;2563905;23;20008;-96
2023/05/01 00:07:51;;;;;;;15.15;9.02;;;;;;;;;;2567004;23;20017;-96
2023/05/01 00:09:12;;;;;;;16.63;9.35;;;;;;;;;;2562051;23;20032;-96
2023/05/01 00:10:36;;;;;;;15.18;8.98;;;;;;;;;;2567198;23;20012;-95
2023/05/01 00:11:57;;;;;;;16.00;8.60;;;;;;;;;;2565748;23;20021;-96
2023/05/01 00:13:20;;;;;;;14.07;7.97;;;;;;;;;;2566407;23;20390;-96
2023/05/01 00:14:41;;;;;;;17.67;9.43;;;;;;;;;;2564783;23;20031;-96
2023/05/01 00:16:08;;;;;;;12.98;7.82;;;;;;;;;;2567043;23;20019;-96
2023/05/01 00:17:30;;;;;;;15.18;8.90;;;;;;;;;;2565160;23;20005;-96
2023/05/01 00:18:51;;;;;;;15.30;8.68;;;;;;;;;;2564480;23;20231;-96
2023/05/01 00:20:13;;;;;;;17.85;8.77;;;;;;;;;;2564388;23;20071;-96
2023/05/01 00:21:36;;;;;;;17.48;8.48;;;;;;;;;;2565311;23;20004;-96
2023/05/01 00:22:57;;;;;;;12.13;8.40;;;;;;;;;;2565308;23;20016;-96
2023/05/01 00:24:18;;;;;;;15.70;8.00;;;;;;;;;;2566201;23;20005;-96
2023/05/01 00:25:44;;;;;;;15.35;9.38;;;;;;;;;;2565498;23;20080;-96
2023/05/01 00:27:05;;;;;;;21.23;9.52;;;;;;;;;;2566050;23;20012;-96
2023/05/01 00:28:29;;;;;;;12.32;7.75;;;;;;;;;;2565857;23;20019;-96
2023/05/01 00:29:50;;;;;;;15.73;8.45;;;;;;;;;;2550917;23;20043;-96
2023/05/01 00:31:13;;;;;;;17.48;8.35;;;;;;;;;;2566458;23;20008;-96
2023/05/01 00:32:37;;;;;;;18.77;9.30;;;;;;;;;;2564855;23;20410;-96
2023/05/01 00:33:58;;;;;;;17.20;8.40;;;;;;;;;;2566254;23;20132;-96
2023/05/01 00:35:19;;;;;;;17.02;9.13;;;;;;;;;;2563650;23;20099;-96
2023/05/01 00:36:40;;;;;;;14.90;9.13;;;;;;;;;;2564694;23;20024;-95
2023/05/01 00:38:01;;;;;;;20.55;9.13;;;;;;;;;;2563513;23;20009;-95
2023/05/01 00:39:22;;;;;;;17.70;9.50;;;;;;;;;;2563385;23;20012;-96
2023/05/01 00:40:43;;;;;;;18.45;9.27;;;;;;;;;;2565771;23;20035;-96
2023/05/01 00:42:05;;;;;;;15.90;8.68;;;;;;;;;;2563196;23;20012;-95
2023/05/01 00:43:26;;;;;;;15.48;8.32;;;;;;;;;;2566739;23;20024;-96
2023/05/01 00:44:47;;;;;;;15.10;8.63;;;;;;;;;;2564388;23;20012;-94
2023/05/01 00:46:08;;;;;;;16.15;8.13;;;;;;;;;;2564536;23;20009;-96
2023/05/01 00:47:29;;;;;;;22.27;9.07;;;;;;;;;;2562967;23;20016;-96
2023/05/01 00:48:51;;;;;;;16.17;8.85;;;;;;;;;;2567639;23;20013;-95
2023/05/01 00:50:19;;;;;;;20.10;9.15;;;;;;;;;;2561815;23;20094;-96
2023/05/01 00:51:41;;;;;;;16.73;8.68;;;;;;;;;;2565886;23;20043;-96
2023/05/01 00:53:02;;;;;;;17.05;8.23;;;;;;;;;;2563595;23;20009;-96
2023/05/01 00:54:24;;;;;;;23.90;9.48;;;;;;;;;;2564040;23;20017;-96
2023/05/01 00:55:46;;;;;;;18.52;9.25;;;;;;;;;;2563963;23;20203;-96
2023/05/01 00:57:08;;;;;;;17.65;8.70;;;;;;;;;;2565088;23;20036;-96
2023/05/01 00:58:29;;;;;;;15.15;8.55;;;;;;;;;;2564836;23;20013;-96
2023/05/01 01:03:50;;;;;;;21.20;9.23;;;;;;;;;;2564133;23;20539;-71
2023/05/01 01:05:11;;;;;;;16.38;7.97;;;;;;;;;;2565000;23;20780;-71
2023/05/01 01:06:50;;;;;;;20.40;9.90;;;;;;;;;;2555574;23;20013;-71
2023/05/01 01:08:18;;;;;;;19.83;8.90;;;;;;;;;;2565115;23;20017;-71
2023/05/01 01:09:44;;;;;;;17.10;9.15;;;;;;;;;;2564592;23;20024;-71
2023/05/01 01:11:24;;;;;;;16.02;9.00;;;;;;;;;;2567306;23;20004;-71
2023/05/01 01:12:52;;;;;;;21.20;10.23;;;;;;;;;;2552983;23;20005;-71
2023/05/01 01:14:18;;;;;;;16.88;8.98;;;;;;;;;;2564029;23;20013;-71
2023/05/01 01:15:43;;;;;;;14.98;8.85;;;;;;;;;;2568054;23;20009;-71
2023/05/01 01:17:15;;;;;;;17.65;8.93;;;;;;;;;;2565848;23;20015;-70
2023/05/01 01:18:47;;;;;;;21.35;9.23;;;;;;;;;;2566770;23;20008;-71
2023/05/01 01:20:23;;;;;;;15.43;8.60;;;;;;;;;;2551899;23;20021;-72
2023/05/01 01:21:46;;;;;;;18.05;9.20;;;;;;;;;;2564519;23;20012;-71
2023/05/01 01:23:17;;;;;;;17.10;9.18;;;;;;;;;;2564677;23;20100;-71
2023/05/01 01:24:57;;;;;;;15.30;9.45;;;;;;;;;;2566086;23;20406;-71
2023/05/01 01:26:23;;;;;;;16.58;9.85;;;;;;;;;;2552758;23;20009;-71
2023/05/01 01:27:51;;;;;;;17.08;8.88;;;;;;;;;;2562318;23;20421;-71
2023/05/01 01:29:36;;;;;;;16.67;9.48;;;;;;;;;;2565189;23;20012;-71
2023/05/01 01:31:16;;;;;;;22.05;10.18;;;;;;;;;;2564166;23;20414;-71
2023/05/01 01:32:39;;;;;;;17.10;9.52;;;;;;;;;;2552957;23;20017;-71
2023/05/01 01:34:03;;;;;;;21.60;10.25;;;;;;;;;;2562137;23;20012;-71
2023/05/01 01:35:24;;;;;;;18.02;9.73;;;;;;;;;;2566358;23;20009;-71
2023/05/01 01:36:50;;;;;;;21.08;9.45;;;;;;;;;;2566456;23;20027;-72
2023/05/01 01:38:15;;;;;;;17.95;8.85;;;;;;;;;;2566531;23;20008;-71
2023/05/01 01:39:45;;;;;;;21.70;9.98;;;;;;;;;;2563984;23;20386;-71
2023/05/01 01:41:08;;;;;;;17.42;9.93;;;;;;;;;;2565845;23;20446;-72
2023/05/01 01:42:33;;;;;;;18.80;10.00;;;;;;;;;;2554057;23;20303;-71
2023/05/01 01:43:57;;;;;;;17.90;9.13;;;;;;;;;;2561115;23;20013;-71
2023/05/01 01:45:22;;;;;;;19.48;9.25;;;;;;;;;;2566643;23;20028;-71
2023/05/01 01:46:44;;;;;;;16.35;8.65;;;;;;;;;;2564602;23;20013;-71
2023/05/01 01:48:07;;;;;;;20.85;9.80;;;;;;;;;;2567199;23;20008;-71
2023/05/01 01:49:28;;;;;;;20.90;9.43;;;;;;;;;;2553151;23;20323;-71
2023/05/01 01:50:49;;;;;;;20.83;9.07;;;;;;;;;;2562876;23;20008;-71
2023/05/01 01:52:13;;;;;;;15.67;9.07;;;;;;;;;;2566162;23;20067;-71
2023/05/01 01:53:36;;;;;;;16.77;8.52;;;;;;;;;;2566253;23;20468;-72
2023/05/01 01:55:01;;;;;;;18.50;9.02;;;;;;;;;;2569886;23;20008;-71
2023/05/01 01:56:25;;;;;;;16.60;9.00;;;;;;;;;;2567568;23;20008;-71
2023/05/01 01:57:47;;;;;;;17.00;10.05;;;;;;;;;;2556000;23;20363;-71
2023/05/01 01:59:09;;;;;;;19.65;9.85;;;;;;;;;;2562482;23;20009;-70
2023/05/01 02:00:30;;;;;;;16.27;9.40;;;;;;;;;;2566689;23;20107;-71
2023/05/01 02:01:52;;;;;;;22.52;9.73;;;;;;;;;;2568677;22;20012;-73
2023/05/01 02:03:13;;;;;;;21.52;10.30;;;;;;;;;;2569589;23;20438;-73
2023/05/01 02:04:35;;;;;;;18.85;9.00;;;;;;;;;;2569661;23;20088;-73
2023/05/01 02:05:57;;;;;;;23.15;10.15;;;;;;;;;;2564807;23;20020;-73
2023/05/01 02:07:18;;;;;;;19.80;10.02;;;;;;;;;;2566991;23;20012;-72
2023/05/01 02:08:39;;;;;;;15.90;9.10;;;;;;;;;;2554470;23;20454;-73
2023/05/01 02:10:01;;;;;;;20.77;9.52;;;;;;;;;;2560876;23;20024;-73
2023/05/01 02:11:23;;;;;;;16.20;9.63;;;;;;;;;;2568002;23;20111;-73
2023/05/01 02:12:45;;;;;;;16.83;8.63;;;;;;;;;;2551915;23;20395;-73
2023/05/01 02:14:08;;;;;;;19.85;9.88;;;;;;;;;;2561619;23;20013;-74
2023/05/01 02:15:28;;;;;;;;;;;;;;;;;;2567701;23;20024;-73
2023/05/01 02:16:49;;;;;;;15.32;8.75;;;;;;;;;;2565805;23;19900;-73
2023/05/01 02:18:11;;;;;;;16.15;8.93;;;;;;;;;;2553700;23;20017;-73
2023/05/01 02:19:32;;;;;;;17.00;8.70;;;;;;;;;;2556838;23;20017;-74
2023/05/01 02:20:55;;;;;;;16.38;9.50;;;;;;;;;;2567185;23;20005;-73
2023/05/01 02:22:17;;;;;;;12.40;8.05;;;;;;;;;;2568897;23;20088;-73
2023/05/01 02:23:38;;;;;;;14.48;9.00;;;;;;;;;;2567643;23;20016;-73
2023/05/01 02:24:59;;;;;;;14.60;8.10;;;;;;;;;;2568397;23;20020;-73
2023/05/01 02:26:24;;;;;;;16.60;8.63;;;;;;;;;;2555827;23;20103;-73
2023/05/01 02:27:54;;;;;;;17.88;8.57;;;;;;;;;;2565458;23;20754;-73
2023/05/01 02:29:15;;;;;;;15.57;9.00;;;;;;;;;;2571251;23;20087;-73
2023/05/01 02:30:37;;;;;;;17.00;7.97;;;;;;;;;;2571729;23;20017;-73
2023/05/01 02:31:59;;;;;;;18.92;8.93;;;;;;;;;;2567629;23;20092;-73
2023/05/01 02:33:20;;;;;;;17.42;9.38;;;;;;;;;;2565701;23;20017;-73
2023/05/01 02:34:41;;;;;;;18.70;9.15;;;;;;;;;;2567549;23;20331;-73
2023/05/01 02:36:04;;;;;;;17.52;8.77;;;;;;;;;;2568245;23;20027;-73
2023/05/01 02:37:24;;;;;;;14.20;8.80;;;;;;;;;;2566896;23;20013;-73
2023/05/01 02:38:46;;;;;;;14.27;8.68;;;;;;;;;;2566894;23;20461;-73
2023/05/01 02:40:07;;;;;;;13.93;8.77;;;;;;;;;;2566438;23;20017;-73
2023/05/01 02:41:28;;;;;;;15.48;9.32;;;;;;;;;;2569749;23;20012;-73
2023/05/01 02:42:50;;;;;;;18.88;9.45;;;;;;;;;;2568229;23;20009;-73
2023/05/01 02:44:11;;;;;;;15.77;8.32;;;;;;;;;;2555805;23;20060;-73
2023/05/01 02:45:33;;;;;;;23.92;9.98;;;;;;;;;;2562345;23;20449;-74
2023/05/01 02:46:55;;;;;;;17.13;9.75;;;;;;;;;;2567582;23;20008;-73
2023/05/01 02:48:18;;;;;;;16.33;9.40;;;;;;;;;;2566227;23;20008;-73
2023/05/01 02:49:39;;;;;;;17.50;9.82;;;;;;;;;;2567011;23;20091;-73
2023/05/01 02:51:01;;;;;;;21.70;10.23;;;;;;;;;;2565050;23;20012;-73
2023/05/01 02:52:22;;;;;;;21.15;10.07;;;;;;;;;;2552054;23;20005;-73
2023/05/01 02:53:43;;;;;;;18.77;9.75;;;;;;;;;;2561677;23;20432;-73
2023/05/01 02:55:04;;;;;;;18.38;10.10;;;;;;;;;;2564479;23;20009;-73
2023/05/01 02:56:26;;;;;;;22.67;9.52;;;;;;;;;;2554482;23;20755;-73
2023/05/01 02:57:49;;;;;;;17.83;9.63;;;;;;;;;;2562588;23;20009;-73
2023/05/01 02:59:10;;;;;;;15.73;8.80;;;;;;;;;;2567616;23;20009;-70
2023/05/01 03:00:31;;;;;;;18.48;10.27;;;;;;;;;;2564777;23;20017;-72
2023/05/01 03:01:52;;;;;;;19.38;10.15;;;;;;;;;;2565930;23;20076;-70
2023/05/01 03:03:13;;;;;;;21.75;10.15;;;;;;;;;;2551572;23;20592;-71
2023/05/01 03:04:34;;;;;;;17.55;9.35;;;;;;;;;;2548739;23;20028;-71
2023/05/01 03:05:55;;;;;;;19.65;9.90;;;;;;;;;;2562077;23;20294;-71
2023/05/01 03:07:16;;;;;;;17.02;8.90;;;;;;;;;;2565695;23;20017;-70
2023/05/01 03:08:37;;;;;;;21.20;10.30;;;;;;;;;;2565797;23;20403;-71
2023/05/01 03:09:58;;;;;;;19.77;10.27;;;;;;;;;;2565578;23;20020;-70
2023/05/01 03:11:20;;;;;;;16.83;9.77;;;;;;;;;;2565911;23;20047;-70
2023/05/01 03:12:41;;;;;;;16.65;8.82;;;;;;;;;;2564574;23;20013;-69
2023/05/01 03:14:02;;;;;;;17.80;9.38;;;;;;;;;;2553924;23;20072;-71
2023/05/01 03:15:22;;;;;;;14.10;9.52;;;;;;;;;;2550629;23;20461;-71
2023/05/01 03:16:43;;;;;;;22.08;10.70;;;;;;;;;;2562537;23;20013;-70
2023/05/01 03:18:05;;;;;;;20.55;10.52;;;;;;;;;;2565778;23;20008;-70
2023/05/01 03:19:26;;;;;;;18.85;9.48;;;;;;;;;;2565910;23;20015;-71
2023/05/01 03:20:53;;;;;;;18.58;9.63;;;;;;;;;;2564893;23;20027;-71
2023/05/01 03:22:15;;;;;;;22.00;9.80;;;;;;;;;;2564868;23;20016;-70
2023/05/01 03:23:37;;;;;;;16.10;9.50;;;;;;;;;;2552461;23;20120;-70
2023/05/01 03:24:58;;;;;;;17.95;9.50;;;;;;;;;;2548939;23;20415;-71
2023/05/01 03:26:19;;;;;;;19.45;9.73;;;;;;;;;;2561682;23;20004;-71
2023/05/01 03:27:40;;;;;;;21.25;9.98;;;;;;;;;;2564176;23;20290;-70
2023/05/01 03:29:01;;;;;;;16.40;8.80;;;;;;;;;;2566574;23;20009;-71
2023/05/01 03:30:22;;;;;;;18.85;9.85;;;;;;;;;;2563272;23;20020;-71
2023/05/01 03:31:43;;;;;;;20.38;9.73;;;;;;;;;;2564412;23;20499;-71
2023/05/01 03:33:03;;;;;;;25.40;10.77;;;;;;;;;;2564252;23;20012;-71
2023/05/01 03:34:25;;;;;;;17.67;9.38;;;;;;;;;;2555186;23;20013;-70
2023/05/01 03:35:46;;;;;;;19.33;10.38;;;;;;;;;;2562588;23;20012;-70
2023/05/01 03:37:07;;;;;;;17.08;9.35;;;;;;;;;;2565827;23;20071;-71
2023/05/01 03:38:29;;;;;;;18.77;9.85;;;;;;;;;;2575255;23;20407;-71
2023/05/01 03:39:50;;;;;;;19.55;10.15;;;;;;;;;;2568806;23;20027;-70
2023/05/01 03:41:11;;;;;;;23.07;11.03;;;;;;;;;;2552296;23;20326;-71
2023/05/01 03:42:32;;;;;;;19.77;10.18;;;;;;;;;;2551924;23;20040;-71
2023/05/01 03:43:53;;;;;;;16.05;8.73;;;;;;;;;;2564964;23;20016;-70
2023/05/01 03:45:14;;;;;;;14.85;8.82;;;;;;;;;;2554005;23;20422;-70
2023/05/01 03:46:35;;;;;;;20.63;10.48;;;;;;;;;;2551902;23;20036;-70
2023/05/01 03:47:56;;;;;;;17.50;9.93;;;;;;;;;;2562438;23;20016;-71
2023/05/01 03:49:17;;;;;;;22.65;11.13;;;;;;;;;;2564645;23;20322;-70
2023/05/01 03:50:37;;;;;;;19.00;9.70;;;;;;;;;;2551456;23;20021;-70
2023/05/01 03:51:58;;;;;;;17.92;10.27;;;;;;;;;;2560503;23;20012;-70
2023/05/01 03:53:19;;;;;;;18.70;9.88;;;;;;;;;;2566819;23;20008;-70
2023/05/01 03:54:40;;;;;;;18.17;10.43;;;;;;;;;;2556788;23;20414;-70
2023/05/01 03:56:03;;;;;;;16.10;9.30;;;;;;;;;;2563127;23;20009;-71
2023/05/01 03:57:23;;;;;;;16.30;8.68;;;;;;;;;;2567517;23;20004;-70
2023/05/01 03:58:44;;;;;;;19.35;9.93;;;;;;;;;;2567897;23;20005;-70
2023/05/01 04:00:06;;;;;;;17.45;9.95;;;;;;;;;;2566744;23;20326;-70
2023/05/01 04:01:27;;;;;;;17.30;10.00;;;;;;;;;;2567760;23;20079;-71
2023/05/01 04:02:47;;;;;;;18.30;9.57;;;;;;;;;;2566331;23;20328;-71
2023/05/01 04:04:08;;;;;;;17.23;9.88;;;;;;;;;;2554724;23;20016;-70
2023/05/01 04:05:29;;;;;;;18.25;9.68;;;;;;;;;;2549252;23;20005;-71
2023/05/01 04:06:50;;;;;;;19.63;9.98;;;;;;;;;;2550270;23;20465;-70
2023/05/01 04:08:12;;;;;;;14.75;8.93;;;;;;;;;;2563976;23;20412;-70
2023/05/01 04:09:32;;;;;;;22.02;10.40;;;;;;;;;;2579666;23;20433;-71
2023/05/01 04:10:53;;;;;;;17.02;9.50;;;;;;;;;;2569431;23;20048;-70
2023/05/01 04:12:14;;;;;;;18.38;9.20;;;;;;;;;;2567913;23;20020;-70
2023/05/01 04:13:35;;;;;;;16.55;9.45;;;;;;;;;;2567964;23;20004;-70
2023/05/01 04:14:56;;;;;;;17.52;10.00;;;;;;;;;;2567876;23;20016;-70
2023/05/01 04:16:17;;;;;;;17.48;9.40;;;;;;;;;;2567305;23;20004;-71
2023/05/01 04:17:38;;;;;;;16.83;9.27;;;;;;;;;;2553223;23;20005;-70
2023/05/01 04:18:59;;;;;;;13.85;9.68;;;;;;;;;;2551412;23;20009;-70
2023/05/01 04:20:20;;;;;;;16.48;9.60;;;;;;;;;;2573608;23;20093;-70
2023/05/01 04:21:41;;;;;;;13.35;8.15;;;;;;;;;;2571455;23;20013;-70
2023/05/01 04:23:02;;;;;;;14.80;9.73;;;;;;;;;;2554573;23;20009;-70
2023/05/01 04:24:23;;;;;;;13.73;9.80;;;;;;;;;;2562423;23;20346;-70
2023/05/01 04:25:44;;;;;;;15.85;9.82;;;;;;;;;;2554683;23;20035;-70
2023/05/01 04:27:05;;;;;;;18.85;9.82;;;;;;;;;;2548904;23;20020;-70
2023/05/01 04:28:29;;;;;;;15.15;9.82;;;;;;;;;;2562019;23;20294;-70
2023/05/01 04:29:51;;;;;;;16.77;9.30;;;;;;;;;;2566495;23;20279;-70
2023/05/01 04:31:11;;;;;;;27.33;11.13;;;;;;;;;;2564803;23;20133;-70
2023/05/01 04:32:33;;;;;;;21.80;11.05;;;;;;;;;;2566827;23;20394;-71
2023/05/01 04:33:54;;;;;;;20.42;10.60;;;;;;;;;;2552170;23;20103;-70
2023/05/01 04:35:15;;;;;;;17.95;9.98;;;;;;;;;;2560467;23;20046;-70
2023/05/01 04:36:36;;;;;;;20.33;9.60;;;;;;;;;;2571989;23;20004;-70
2023/05/01 04:37:57;;;;;;;20.73;10.85;;;;;;;;;;2569798;23;20551;-71
2023/05/01 04:39:18;;;;;;;19.52;9.90;;;;;;;;;;2567700;23;20005;-71
2023/05/01 04:40:39;;;;;;;17.85;9.60;;;;;;;;;;2566988;23;20016;-70
2023/05/01 04:42:01;;;;;;;15.20;9.23;;;;;;;;;;2567728;23;20453;-70
2023/05/01 04:43:21;;;;;;;16.45;9.77;;;;;;;;;;2554338;23;20120;-70
2023/05/01 04:44:43;;;;;;;21.90;10.70;;;;;;;;;;2549367;23;20092;-70
2023/05/01 04:46:04;;;;;;;18.13;10.38;;;;;;;;;;2551057;23;20009;-70
2023/05/01 04:47:26;;;;;;;18.70;10.32;;;;;;;;;;2561016;23;20017;-71
2023/05/01 04:48:46;;;;;;;16.40;9.43;;;;;;;;;;2552865;23;20319;-70
2023/05/01 04:50:07;;;;;;;21.58;11.38;;;;;;;;;;2547375;23;20016;-71
2023/05/01 04:51:28;;;;;;;19.52;10.15;;;;;;;;;;2565152;23;20004;-70
2023/05/01 04:52:49;;;;;;;20.15;10.65;;;;;;;;;;2565781;23;20009;-71
2023/05/01 04:54:10;;;;;;;21.90;10.57;;;;;;;;;;2565534;23;20017;-70
2023/05/01 04:55:31;;;;;;;18.90;10.20;;;;;;;;;;2566762;23;20075;-71
2023/05/01 04:56:52;;;;;;;21.30;10.45;;;;;;;;;;2566375;23;20396;-71
2023/05/01 04:58:13;;;;;;;23.63;11.18;;;;;;;;;;2551639;23;20039;-71
2023/05/01 04:59:34;;;;;;;20.13;10.90;;;;;;;;;;2563720;23;20027;-71
2023/05/01 05:00:55;;;;;;;16.80;10.13;;;;;;;;;;2565658;23;20027;-71
2023/05/01 05:02:16;;;;;;;25.83;10.55;;;;;;;;;;2563949;23;20032;-71
2023/05/01 05:03:37;;;;;;;20.30;9.95;;;;;;;;;;2552003;23;20017;-70
2023/05/01 05:04:58;;;;;;;22.90;10.73;;;;;;;;;;2560715;23;20320;-71
2023/05/01 05:06:19;;;;;;;22.23;10.82;;;;;;;;;;2565115;23;20071;-70
2023/05/01 05:07:39;;;;;;;20.38;10.18;;;;;;;;;;2563874;23;20019;-70
2023/05/01 05:09:00;;;;;;;25.70;10.23;;;;;;;;;;2565815;23;20343;-70
2023/05/01 05:10:21;;;;;;;28.73;11.43;;;;;;;;;;2563877;23;20476;-71
2023/05/01 05:11:42;;;;;;;19.85;10.43;;;;;;;;;;2565718;23;20024;-71
2023/05/01 05:13:03;;;;;;;21.85;9.68;;;;;;;;;;2567052;23;20019;-69
2023/05/01 05:14:24;;;;;;;17.25;9.35;;;;;;;;;;2553750;23;20406;-70
2023/05/01 05:15:45;;;;;;;21.30;9.98;;;;;;;;;;2557392;23;20423;-70
2023/05/01 05:17:06;;;;;;;21.98;11.27;;;;;;;;;;2559718;23;20009;-70
2023/05/01 05:18:27;;;;;;;22.92;10.93;;;;;;;;;;2565604;23;20005;-71
2023/05/01 05:19:47;;;;;;;18.83;10.35;;;;;;;;;;2551849;23;20453;-72
2023/05/01 05:21:09;;;;;;;19.02;10.10;;;;;;;;;;2558756;23;20023;-71
2023/05/01 05:22:30;;;;;;;21.80;10.93;;;;;;;;;;2566331;23;20012;-71
2023/05/01 05:23:51;;;;;;;24.38;10.65;;;;;;;;;;2574096;23;20093;-71
2023/05/01 05:25:11;;;;;;;20.75;10.73;;;;;;;;;;2566798;23;20445;-71
2023/05/01 05:26:32;;;;;;;22.00;10.52;;;;;;;;;;2565873;23;20017;-71
2023/05/01 05:27:53;;;;;;;24.85;11.10;;;;;;;;;;2567756;23;20016;-71
2023/05/01 05:29:14;;;;;;;25.52;11.60;;;;;;;;;;2566954;23;20410;-71
2023/05/01 05:30:35;;;;;;;24.33;10.68;;;;;;;;;;2563712;23;20074;-71
2023/05/01 05:31:58;;;;;;;21.48;9.70;;;;;;;;;;2565316;23;20031;-71
2023/05/01 05:33:19;;;;;;;22.85;10.68;;;;;;;;;;2566450;23;20398;-71
2023/05/01 05:34:40;;;;;;;19.13;10.25;;;;;;;;;;2552247;23;20020;-71
2023/05/01 05:36:01;;;;;;;20.10;10.60;;;;;;;;;;2549434;23;20454;-71
2023/05/01 05:37:24;;;;;;;17.42;10.25;;;;;;;;;;2549164;23;20358;-71
2023/05/01 05:38:45;;;;;;;17.63;10.20;;;;;;;;;;2562923;23;20108;-71
2023/05/01 05:40:06;;;;;;;19.17;9.95;;;;;;;;;;2554485;23;20048;-72
2023/05/01 05:41:27;;;;;;;22.60;11.60;;;;;;;;;;2552522;23;20370;-71
2023/05/01 05:42:48;;;;;;;19.52;9.63;;;;;;;;;;2552289;23;20089;-71
2023/05/01 05:44:10;;;;;;;14.88;9.10;;;;;;;;;;2562425;23;20263;-70
2023/05/01 05:45:34;;;;;;;20.40;9.57;;;;;;;;;;2553836;23;20017;-72
2023/05/01 05:46:55;;;;;;;23.95;10.98;;;;;;;;;;2547673;23;20020;-71
2023/05/01 05:48:16;;;;;;;25.80;11.82;;;;;;;;;;2561773;23;20405;-72
2023/05/01 05:49:36;;;;;;;25.95;10.65;;;;;;;;;;2565531;23;20004;-71
2023/05/01 05:50:57;;;;;;;21.65;11.45;;;;;;;;;;2565943;23;20489;-72
2023/05/01 05:52:18;;;;;;;22.65;11.25;;;;;;;;;;2565923;23;20009;-72
2023/05/01 05:53:39;;;;;;;20.00;11.23;;;;;;;;;;2566157;23;20067;-71
2023/05/01 05:55:00;;;;;;;26.00;10.63;;;;;;;;;;2566538;23;20012;-72
2023/05/01 05:56:22;;;;;;;25.13;11.32;;;;;;;;;;2567707;23;20019;-71
2023/05/01 05:57:42;;;;;;;17.98;11.30;;;;;;;;;;2566075;23;20013;-72
2023/05/01 05:59:05;;;;;;;20.90;10.60;;;;;;;;;;2553972;23;20005;-72
2023/05/01 06:00:26;;;;;;;20.48;11.30;;;;;;;;;;2549207;23;20015;-71
2023/05/01 06:01:47;;;;;;;19.58;10.00;;;;;;;;;;2561803;23;20000;-72
2023/05/01 06:03:07;;;;;;;18.60;10.55;;;;;;;;;;2566151;23;20013;-70
2023/05/01 06:04:28;;;;;;;24.90;10.98;;;;;;;;;;2567431;23;20020;-71
2023/05/01 06:05:49;;;;;;;22.23;10.70;;;;;;;;;;2552941;23;20044;-71
2023/05/01 06:07:10;;;;;;;19.42;10.80;;;;;;;;;;2560471;23;20401;-70
2023/05/01 06:08:31;;;;;;;24.77;11.20;;;;;;;;;;2566310;23;20032;-71
2023/05/01 06:09:52;;;;;;;15.50;9.45;;;;;;;;;;2566558;23;20009;-71
2023/05/01 06:11:13;;;;;;;18.73;9.70;;;;;;;;;;2566307;23;20513;-70
2023/05/01 06:12:34;;;;;;;20.48;11.60;;;;;;;;;;2566948;23;20008;-71
2023/05/01 06:13:56;;;;;;;22.90;10.75;;;;;;;;;;2567897;23;20470;-71
2023/05/01 06:15:17;;;;;;;23.60;10.23;;;;;;;;;;2569669;23;20012;-70
2023/05/01 06:16:38;;;;;;;23.20;11.10;;;;;;;;;;2566594;23;20005;-70
2023/05/01 06:17:59;;;;;;;26.90;11.88;;;;;;;;;;2552661;23;20525;-70
2023/05/01 06:19:19;;;;;;;18.70;9.93;;;;;;;;;;2561849;23;20009;-70
2023/05/01 06:20:41;;;;;;;18.92;9.85;;;;;;;;;;2565820;23;20020;-70
2023/05/01 06:22:02;;;;;;;17.60;10.23;;;;;;;;;;2566470;23;20008;-71
2023/05/01 06:23:23;;;;;;;16.83;9.73;;;;;;;;;;2568434;23;20004;-70
2023/05/01 06:24:44;;;;;;;18.65;9.85;;;;;;;;;;2568148;23;20004;-70
2023/05/01 06:26:05;;;;;;;19.48;9.73;;;;;;;;;;2556041;23;20029;-70
2023/05/01 06:27:26;;;;;;;18.10;9.85;;;;;;;;;;2563825;23;20016;-70
2023/05/01 06:28:47;;;;;;;22.83;9.88;;;;;;;;;;2567851;23;20008;-70
2023/05/01 06:30:08;;;;;;;17.23;9.82;;;;;;;;;;2566630;23;20057;-72
2023/05/01 06:31:29;;;;;;;18.05;10.02;;;;;;;;;;2565186;23;20081;-70
2023/05/01 06:32:50;;;;;;;19.67;10.55;;;;;;;;;;2567929;23;20456;-73
2023/05/01 06:34:11;;;;;;;14.93;9.80;;;;;;;;;;2567959;23;20012;-75
2023/05/01 06:35:32;;;;;;;19.67;10.43;;;;;;;;;;2567120;23;20407;-75
2023/05/01 06:36:53;;;;;;;19.30;10.80;;;;;;;;;;2555463;23;20005;-75
2023/05/01 06:38:14;;;;;;;19.25;9.55;;;;;;;;;;2563976;23;20021;-74
2023/05/01 06:39:35;;;;;;;22.52;10.73;;;;;;;;;;2567059;23;20433;-73
2023/05/01 06:40:56;;;;;;;20.20;10.57;;;;;;;;;;2561480;23;20087;-74
2023/05/01 06:42:17;;;;;;;20.65;10.40;;;;;;;;;;2563341;23;20082;-72
2023/05/01 06:43:38;;;;;;;16.88;8.85;;;;;;;;;;2568409;23;20012;-73
2023/05/01 06:44:58;;;;;;;20.45;9.80;;;;;;;;;;2566418;23;20442;-74
2023/05/01 06:46:19;;;;;;;17.60;9.75;;;;;;;;;;2554190;23;20035;-73
2023/05/01 06:47:40;;;;;;;16.02;9.68;;;;;;;;;;2563770;23;20344;-74
2023/05/01 06:49:01;;;;;;;19.70;10.48;;;;;;;;;;2569860;23;20012;-75
2023/05/01 06:50:22;;;;;;;20.90;9.63;;;;;;;;;;2569358;23;20017;-73
2023/05/01 06:51:43;;;;;;;16.13;10.15;;;;;;;;;;2555256;23;20016;-73
2023/05/01 06:53:04;;;;;;;16.23;10.30;;;;;;;;;;2565022;23;20469;-73
2023/05/01 06:54:25;;;;;;;14.23;9.60;;;;;;;;;;2567854;23;20016;-73
2023/05/01 06:55:46;;;;;;;16.83;9.65;;;;;;;;;;2568278;23;20035;-73
2023/05/01 06:57:07;;;;;;;17.98;9.30;;;;;;;;;;2557546;23;20009;-74
2023/05/01 06:58:28;;;;;;;18.73;10.98;;;;;;;;;;2552157;23;20013;-73
2023/05/01 06:59:49;;;;;;;19.20;10.55;;;;;;;;;;2566528;23;20023;-73
2023/05/01 07:01:10;;;;;;;24.25;10.55;;;;;;;;;;2566512;23;20363;-73
2023/05/01 07:02:31;;;;;;;20.40;10.55;;;;;;;;;;2553276;23;20521;-74
2023/05/01 07:03:51;;;;;;;19.23;9.60;;;;;;;;;;2551057;23;20021;-74
2023/05/01 07:05:12;;;;;;;20.60;10.90;;;;;;;;;;2554873;23;20005;-74
2023/05/01 07:06:34;;;;;;;15.90;10.90;;;;;;;;;;2563541;23;20379;-75
2023/05/01 07:07:55;;;;;;;21.10;11.33;;;;;;;;;;2568420;23;20005;-74
2023/05/01 07:09:16;;;;;;;20.08;11.50;;;;;;;;;;2569016;23;20004;-74
2023/05/01 07:10:36;;;;;;;18.98;10.38;;;;;;;;;;2566761;23;20038;-73
2023/05/01 07:11:57;;;;;;;19.95;11.70;;;;;;;;;;2567246;23;20051;-74
2023/05/01 07:13:18;;;;;;;26.50;12.65;;;;;;;;;;2568951;23;20291;-74
2023/05/01 07:14:40;;;;;;;21.83;10.77;;;;;;;;;;2553925;23;20478;-74
2023/05/01 07:16:02;;;;;;;21.77;10.88;;;;;;;;;;2563549;23;20015;-74
2023/05/01 07:17:22;;;;;;;22.88;10.23;;;;;;;;;;2566601;23;20009;-74
2023/05/01 07:18:43;;;;;;;21.63;11.98;;;;;;;;;;2568071;23;20020;-74
2023/05/01 07:20:05;;;;;;;22.15;11.85;;;;;;;;;;2567687;23;20005;-74
2023/05/01 07:21:26;;;;;;;21.25;11.80;;;;;;;;;;2567196;23;20020;-74
2023/05/01 07:22:46;;;;;;;19.20;11.10;;;;;;;;;;2566379;23;20468;-74
2023/05/01 07:24:08;;;;;;;21.35;11.50;;;;;;;;;;2555503;23;20027;-74
2023/05/01 07:25:29;;;;;;;22.27;11.57;;;;;;;;;;2550171;23;20497;-74
2023/05/01 07:26:50;;;;;;;22.15;11.40;;;;;;;;;;2562587;23;20013;-74
2023/05/01 07:28:11;;;;;;;19.58;10.70;;;;;;;;;;2555264;23;20021;-75
2023/05/01 07:29:32;;;;;;;19.30;11.15;;;;;;;;;;2564357;23;20020;-75
2023/05/01 07:30:53;;;;;;;20.85;11.68;;;;;;;;;;2552933;23;20479;-75
2023/05/01 07:32:14;;;;;;;23.70;12.60;;;;;;;;;;2550078;23;20032;-74
2023/05/01 07:33:35;;;;;;;22.45;11.38;;;;;;;;;;2550229;23;20008;-74
2023/05/01 07:34:57;;;;;;;20.00;10.55;;;;;;;;;;2563529;23;20005;-75
2023/05/01 07:36:19;;;;;;;25.70;12.32;;;;;;;;;;2569347;23;20295;-74
2023/05/01 07:37:40;;;;;;;20.08;11.70;;;;;;;;;;2554180;23;20005;-74
2023/05/01 07:39:01;;;;;;;23.58;11.93;;;;;;;;;;2550144;23;20009;-74
2023/05/01 07:40:21;;;;;;;23.98;12.48;;;;;;;;;;2551243;23;20485;-74
2023/05/01 07:41:43;;;;;;;23.40;11.35;;;;;;;;;;2562962;23;20095;-75
2023/05/01 07:43:04;;;;;;;23.35;12.63;;;;;;;;;;2566890;23;20013;-74
2023/05/01 07:44:25;;;;;;;21.50;12.82;;;;;;;;;;2568255;23;20017;-74
2023/05/01 07:45:59;;;;;;;21.67;11.45;;;;;;;;;;2567854;23;20013;-74
2023/05/01 07:47:19;;;;;;;20.73;10.60;;;;;;;;;;2568795;23;20016;-74
2023/05/01 07:48:40;;;;;;;19.50;11.00;;;;;;;;;;2571171;23;20012;-75
2023/05/01 07:50:02;;;;;;;18.48;11.45;;;;;;;;;;2556944;23;20017;-74
2023/05/01 07:51:22;;;;;;;20.33;11.13;;;;;;;;;;2563884;23;20454;-74
2023/05/01 07:52:44;;;;;;;15.07;10.43;;;;;;;;;;2570239;23;20031;-75
2023/05/01 07:54:05;;;;;;;19.10;10.18;;;;;;;;;;2571185;23;20016;-75
2023/05/01 07:55:25;;;;;;;14.95;10.98;;;;;;;;;;2572162;23;20047;-75
2023/05/01 07:56:46;;;;;;;18.17;10.18;;;;;;;;;;2572325;23;20012;-75
2023/05/01 07:58:07;;;;;;;17.83;11.63;;;;;;;;;;2570146;23;20019;-74
2023/05/01 07:59:28;;;;;;;20.67;11.02;;;;;;;;;;2571685;23;20031;-75
2023/05/01 08:00:49;;;;;;;17.10;10.38;;;;;;;;;;2570980;23;20057;-75
2023/05/01 08:02:10;;;;;;;19.80;10.40;;;;;;;;;;2558073;23;20009;-75
2023/05/01 08:03:31;;;;;;;20.33;11.00;;;;;;;;;;2574369;23;20074;-75
2023/05/01 08:04:52;;;;;;;16.38;10.23;;;;;;;;;;2583466;23;20012;-75